Time;durP1;ratioP1;P1;durP2;ratioP2;P2;SDS_P1;SDS_P2;PMS_P1;PMS_P2;Temp;Humidity;BMP_temperature;BMP_pressure;BME280_temperature;BME280_humidity;BME280_pressure;Samples;Min_cycle;Max_cycle;Signal;HPM_P1;HPM_P2
2023/10/04 00:02:19;;;;;;;1999.90;999.90;;;;;;;12.65;100.00;102339.28;10420016;28;20096;-73
2023/10/04 00:07:22;;;;;;;1999.90;999.90;;;;;;;12.70;100.00;102341.72;10420662;28;20502;-73
2023/10/04 00:12:24;;;;;;;1999.90;999.90;;;;;;;12.85;100.00;102345.47;10419148;22;20053;-65
2023/10/04 00:17:27;;;;;;;1999.90;999.90;;;;;;;12.94;100.00;102345.91;10420876;28;20049;-65
2023/10/04 00:22:29;;;;;;;1999.90;999.90;;;;;;;12.88;100.00;102350.59;10420578;28;20073;-66
2023/10/04 00:27:32;;;;;;;1999.90;999.90;;;;;;;12.77;100.00;102348.41;10420467;28;20049;-65
2023/10/04 00:32:35;;;;;;;1999.90;999.90;;;;;;;12.77;100.00;102353.69;10419625;28;20050;-65
2023/10/04 00:37:39;;;;;;;1999.90;999.90;;;;;;;12.81;100.00;102356.13;10419887;28;20068;-65
2023/10/04 00:42:41;;;;;;;1999.90;999.90;;;;;;;12.75;100.00;102360.78;10419173;28;20050;-66
2023/10/04 00:47:47;;;;;;;1999.90;999.90;;;;;;;12.58;100.00;102371.97;10419708;28;20228;-65
2023/10/04 00:53:02;;;;;;;1999.90;999.90;;;;;;;12.58;100.00;102370.19;10419525;28;20124;-65
2023/10/04 00:58:07;;;;;;;1999.90;999.90;;;;;;;12.63;100.00;102376.13;10401673;28;20049;-66
2023/10/04 01:03:10;;;;;;;1999.90;999.90;;;;;;;12.61;100.00;102372.72;10401611;28;20051;-65
2023/10/04 01:08:15;;;;;;;1999.90;999.90;;;;;;;12.56;100.00;102382.56;10400778;28;20490;-65
2023/10/04 01:13:21;;;;;;;1999.90;999.90;;;;;;;12.68;100.00;102375.94;10418399;28;20136;-65
2023/10/04 01:18:28;;;;;;;1999.90;999.90;;;;;;;12.63;100.00;102389.25;10418410;28;20051;-66
2023/10/04 01:23:31;;;;;;;1999.90;999.90;;;;;;;12.66;100.00;102380.41;10418187;28;20058;-66
2023/10/04 01:28:33;;;;;;;1999.90;999.90;;;;;;;12.65;100.00;102378.69;10417992;28;20060;-66
2023/10/04 01:33:37;;;;;;;1999.90;999.90;;;;;;;12.54;100.00;102392.28;10417362;28;20064;-66
2023/10/04 01:38:39;;;;;;;1999.90;999.90;;;;;;;12.62;100.00;102403.34;10416900;28;20045;-65
2023/10/04 01:43:42;;;;;;;1999.90;999.90;;;;;;;12.57;100.00;102402.63;10417929;28;20049;-66
2023/10/04 01:48:45;;;;;;;1999.90;999.90;;;;;;;12.71;100.00;102390.72;10416633;28;20140;-66
2023/10/04 01:53:47;;;;;;;1999.90;999.90;;;;;;;12.60;100.00;102399.03;10416446;28;20054;-65
2023/10/04 01:58:50;;;;;;;1999.90;999.90;;;;;;;12.63;100.00;102402.41;10416831;28;20051;-65
2023/10/04 02:03:53;;;;;;;1999.90;999.90;;;;;;;12.67;100.00;102397.03;10416756;28;20061;-66
2023/10/04 02:08:56;;;;;;;1999.90;999.90;;;;;;;12.64;100.00;102400.63;10416453;28;20136;-64
2023/10/04 02:13:58;;;;;;;1999.90;999.90;;;;;;;12.68;100.00;102388.25;10416429;28;20080;-66
2023/10/04 02:19:01;;;;;;;1999.90;999.90;;;;;;;12.72;100.00;102380.13;10416412;28;20056;-66
2023/10/04 02:24:04;;;;;;;1999.90;999.90;;;;;;;12.80;100.00;102388.56;10415675;28;20073;-66
2023/10/04 02:29:09;;;;;;;1999.90;999.90;;;;;;;12.76;100.00;102389.63;10415343;28;20524;-66
2023/10/04 02:34:12;;;;;;;1999.90;999.90;;;;;;;12.69;100.00;102390.78;10415882;28;20095;-65
2023/10/04 02:39:15;;;;;;;1999.90;999.90;;;;;;;12.66;100.00;102390.03;10415057;28;20053;-65
2023/10/04 02:44:18;;;;;;;1999.90;999.90;;;;;;;12.81;100.00;102390.28;10415619;28;20053;-65
2023/10/04 02:49:20;;;;;;;1999.90;999.90;;;;;;;12.76;100.00;102391.38;10415959;28;20053;-66
2023/10/04 02:54:23;;;;;;;1999.90;999.90;;;;;;;12.72;100.00;102390.66;10415447;28;20053;-65
2023/10/04 02:59:27;;;;;;;1999.90;999.90;;;;;;;12.70;100.00;102397.75;10415242;28;20057;-65
2023/10/04 03:04:30;;;;;;;1999.90;999.90;;;;;;;12.71;100.00;102391.59;10397910;28;20045;-66
2023/10/04 03:09:32;;;;;;;1999.90;999.90;;;;;;;12.76;100.00;102397.50;10415431;28;20050;-65
2023/10/04 03:14:34;;;;;;;1999.90;999.90;;;;;;;12.58;100.00;102408.78;10414427;28;20498;-66
2023/10/04 03:19:37;;;;;;;1999.90;999.90;;;;;;;12.77;100.00;102409.72;10414880;28;20132;-66
2023/10/04 03:24:39;;;;;;;1999.90;999.90;;;;;;;12.69;100.00;102414.44;10414840;28;20084;-65
2023/10/04 03:29:43;;;;;;;1999.90;999.90;;;;;;;12.69;100.00;102413.56;10414775;28;20073;-66
2023/10/04 03:34:45;;;;;;;1999.90;999.90;;;;;;;12.50;100.00;102423.97;10415710;28;20124;-66
2023/10/04 03:39:48;;;;;;;1999.90;999.90;;;;;;;12.54;100.00;102426.44;10422277;28;20061;-65
2023/10/04 03:44:50;;;;;;;1999.90;999.90;;;;;;;12.42;100.00;102430.41;10404574;28;20053;-65
2023/10/04 03:49:52;;;;;;;1999.90;999.90;;;;;;;12.34;100.00;102421.09;10421376;28;20050;-65
2023/10/04 03:54:55;;;;;;;1999.90;999.90;;;;;;;12.36;100.00;102425.38;10421757;28;20049;-65
2023/10/04 03:59:58;;;;;;;1999.90;999.90;;;;;;;12.34;100.00;102429.84;10421516;28;20041;-65
2023/10/04 04:05:02;;;;;;;1999.90;999.90;;;;;;;12.24;100.00;102437.22;10403830;28;20049;-65
2023/10/04 04:10:07;;;;;;;1999.90;999.90;;;;;;;12.22;100.00;102440.78;10421001;28;20095;-65
2023/10/04 04:15:10;;;;;;;1999.90;999.90;;;;;;;12.24;100.00;102437.22;10403261;28;20049;-66
2023/10/04 04:20:14;;;;;;;1999.90;999.90;;;;;;;12.25;100.00;102424.94;10420757;28;20049;-66
2023/10/04 04:25:26;;;;;;;1999.90;999.90;;;;;;;12.16;100.00;102443.66;10419978;28;20501;-65
2023/10/04 04:30:35;;;;;;;1999.90;999.90;;;;;;;12.24;100.00;102442.47;10420341;28;20050;-65
2023/10/04 04:40:44;;;;;;;1999.90;999.90;;;;;;;12.12;100.00;102427.19;10419951;28;20096;-66
2023/10/04 04:45:52;;;;;;;1999.90;999.90;;;;;;;12.12;100.00;102414.06;10402703;28;20049;-65
2023/10/04 04:50:57;;;;;;;1999.90;999.90;;;;;;;12.10;100.00;102410.63;10402104;28;20132;-65
2023/10/04 04:56:00;;;;;;;1999.90;999.90;;;;;;;12.06;100.00;102416.91;10419403;28;20053;-65
2023/10/04 05:01:07;;;;;;;1999.90;999.90;;;;;;;12.18;100.00;102410.34;10400835;28;20415;-65
2023/10/04 05:06:23;;;;;;;1999.90;999.90;;;;;;;12.11;100.00;102416.75;10419045;28;20056;-65
2023/10/04 05:11:26;;;;;;;1999.90;999.90;;;;;;;11.98;100.00;102419.81;10400599;28;20417;-65
2023/10/04 05:16:28;;;;;;;1999.90;999.90;;;;;;;12.11;100.00;102435.97;10418537;28;20049;-66
2023/10/04 05:21:30;;;;;;;1999.90;999.90;;;;;;;11.99;100.00;102444.31;10400789;28;20052;-65
2023/10/04 05:26:35;;;;;;;1999.90;999.90;;;;;;;11.69;100.00;102462.84;10418216;28;20080;-65
2023/10/04 05:31:38;;;;;;;1999.90;999.90;;;;;;;11.90;100.00;102476.94;10417324;28;20507;-65
2023/10/04 05:36:40;;;;;;;1999.90;999.90;;;;;;;11.81;100.00;102478.13;10417790;28;20122;-65
2023/10/04 05:41:43;;;;;;;1999.90;999.90;;;;;;;11.63;100.00;102466.53;10416913;28;20453;-65
2023/10/04 05:46:47;;;;;;;1999.90;999.90;;;;;;;11.86;100.00;102475.34;10417426;28;20068;-65
2023/10/04 05:51:51;;;;;;;1999.90;999.90;;;;;;;11.66;100.00;102495.28;10417735;28;20124;-65
2023/10/04 05:56:53;;;;;;;1999.90;999.90;;;;;;;11.89;100.00;102499.72;10416354;28;20056;-66
2023/10/04 06:01:55;;;;;;;1999.90;999.90;;;;;;;11.74;100.00;102512.53;10416838;28;20072;-65
2023/10/04 06:06:58;;;;;;;1999.90;999.90;;;;;;;11.80;100.00;102507.94;10398539;28;20064;-65
2023/10/04 06:12:01;;;;;;;1999.90;999.90;;;;;;;11.76;100.00;102508.09;10416026;28;20057;-65
2023/10/04 06:17:04;;;;;;;1999.90;999.90;;;;;;;11.85;100.00;102510.38;10415726;28;20045;-65
2023/10/04 06:22:07;;;;;;;1999.90;999.90;;;;;;;11.75;100.00;102509.88;10398806;28;20057;-65
2023/10/04 06:27:09;;;;;;;1999.90;999.90;;;;;;;11.73;100.00;102516.06;10416078;28;20046;-65
2023/10/04 06:32:12;;;;;;;1999.90;999.90;;;;;;;11.92;100.00;102525.03;10398363;28;20049;-65
2023/10/04 06:37:14;;;;;;;1999.90;999.90;;;;;;;11.85;100.00;102518.25;10415824;28;20061;-65
2023/10/04 06:42:16;;;;;;;1999.90;999.90;;;;;;;11.90;100.00;102524.19;10415648;28;20049;-65
2023/10/04 06:47:20;;;;;;;1999.90;999.90;;;;;;;11.95;100.00;102530.16;10415581;28;20088;-65
2023/10/04 06:52:23;;;;;;;1999.90;999.90;;;;;;;12.07;100.00;102523.63;10414866;28;20532;-65
2023/10/04 06:57:25;;;;;;;1999.90;999.90;;;;;;;12.08;100.00;102530.59;10415396;28;20056;-65
2023/10/04 07:02:28;;;;;;;1999.90;999.90;;;;;;;12.45;100.00;102539.75;10415261;28;20045;-65
2023/10/04 07:07:30;;;;;;;1999.90;999.90;;;;;;;12.55;100.00;102535.00;10415141;28;20084;-65
2023/10/04 07:12:35;;;;;;;1999.90;999.90;;;;;;;12.59;100.00;102544.47;10422633;28;20127;-65
2023/10/04 07:17:39;;;;;;;1999.90;999.90;;;;;;;13.05;100.00;102539.22;10422615;28;20053;-65
2023/10/04 07:22:45;;;;;;;1999.90;999.90;;;;;;;13.25;100.00;102536.63;10422930;28;20081;-65
2023/10/04 07:27:47;;;;;;;1999.90;999.90;;;;;;;13.41;100.00;102539.50;10422228;28;20406;-65
2023/10/04 07:32:50;;;;;;;1999.90;999.90;;;;;;;13.86;100.00;102535.81;10422605;28;20049;-65
2023/10/04 07:37:56;;;;;;;1999.90;999.90;;;;;;;14.26;100.00;102535.84;10404308;28;20071;-65
2023/10/04 07:43:03;;;;;;;1999.90;999.90;;;;;;;14.67;100.00;102543.63;10422247;28;20045;-65
2023/10/04 07:48:08;;;;;;;1999.90;999.90;;;;;;;15.09;100.00;102557.50;10422079;28;20081;-65
2023/10/04 07:53:10;;;;;;;1999.90;999.90;;;;;;;15.07;100.00;102559.34;10403963;28;20442;-65
2023/10/04 07:58:13;;;;;;;1999.90;999.90;;;;;;;15.29;100.00;102552.09;10421077;28;20053;-66
2023/10/04 08:03:16;;;;;;;1999.90;999.90;;;;;;;15.38;100.00;102543.72;10421385;28;20081;-65
2023/10/04 08:08:19;;;;;;;1999.90;999.90;;;;;;;15.68;100.00;102545.72;10421759;28;20053;-65
2023/10/04 08:13:21;;;;;;;1999.90;999.90;;;;;;;15.67;97.83;102557.25;10420416;28;20566;-65
2023/10/04 08:18:23;;;;;;;1999.90;999.90;;;;;;;16.27;95.24;102561.19;10420911;28;20045;-65
2023/10/04 08:23:26;;;;;;;1999.90;999.90;;;;;;;16.35;96.84;102562.50;10419899;28;20099;-65
2023/10/04 08:28:29;;;;;;;1999.90;999.90;;;;;;;16.72;94.92;102563.13;10420509;28;20050;-65
2023/10/04 08:33:32;;;;;;;1999.90;999.90;;;;;;;17.06;94.19;102563.94;10420637;28;20042;-66
2023/10/04 08:38:36;;;;;;;1999.90;999.90;;;;;;;17.05;93.01;102570.16;10419462;28;20490;-66
2023/10/04 08:43:38;;;;;;;1999.90;999.90;;;;;;;16.96;94.66;102570.66;10419857;28;20042;-65
2023/10/04 08:48:41;;;;;;;1999.90;999.90;;;;;;;17.64;89.87;102572.06;10419642;28;20124;-65
2023/10/04 08:54:13;;;;;;;1999.90;999.90;;;;;;;17.62;89.77;102568.66;10401472;28;20049;-65
2023/10/04 08:59:17;;;;;;;1999.90;999.90;;;;;;;17.34;87.78;102572.06;10402240;28;20049;-65
2023/10/04 09:04:20;;;;;;;1999.90;999.90;;;;;;;16.96;88.73;102565.38;10401629;28;20059;-65
2023/10/04 09:09:23;;;;;;;1999.90;999.90;;;;;;;17.46;88.54;102558.94;10418646;28;20054;-65
2023/10/04 09:14:27;;;;;;;1999.90;999.90;;;;;;;18.01;88.49;102557.47;10401105;28;20095;-66
2023/10/04 09:19:29;;;;;;;1999.90;999.90;;;;;;;17.40;84.64;102563.75;10417812;28;20503;-65
2023/10/04 09:24:34;;;;;;;1999.90;999.90;;;;;;;17.72;86.53;102558.34;10418296;28;20060;-65
2023/10/04 09:29:37;;;;;;;1999.90;999.90;;;;;;;17.11;89.14;102568.09;10418131;28;20060;-65
2023/10/04 09:34:39;;;;;;;1999.90;999.90;;;;;;;17.45;88.27;102567.00;10416939;28;20128;-66
2023/10/04 09:39:41;;;;;;;1999.90;999.90;;;;;;;17.34;89.06;102572.06;10417052;28;20125;-66
2023/10/04 09:44:44;;;;;;;1999.90;999.90;;;;;;;16.76;89.14;102570.91;10417537;28;20053;-65
2023/10/04 09:49:49;;;;;;;1999.90;999.90;;;;;;;16.95;88.00;102573.41;10399802;28;20156;-66
2023/10/04 09:54:53;;;;;;;1999.90;999.90;;;;;;;17.37;88.62;102569.25;10399863;28;20046;-66
2023/10/04 09:59:56;;;;;;;1999.90;999.90;;;;;;;17.68;86.49;102572.75;10416931;28;20073;-66
2023/10/04 10:04:59;;;;;;;1999.90;999.90;;;;;;;17.57;84.01;102566.28;10399282;28;20081;-65
2023/10/04 10:10:05;;;;;;;1999.90;999.90;;;;;;;18.83;80.89;102559.50;10398890;28;20053;-66
2023/10/04 10:15:18;;;;;;;1999.90;999.90;;;;;;;18.40;81.54;102570.19;10385375;28;20049;-65
2023/10/04 10:20:21;;;;;;;1999.90;999.90;;;;;;;17.63;82.55;102586.25;10416210;28;20137;-66
2023/10/04 10:25:25;;;;;;;1999.90;999.90;;;;;;;18.33;81.42;102578.50;10398106;28;20056;-66
2023/10/04 10:30:30;;;;;;;1999.90;999.90;;;;;;;18.16;80.38;102581.34;10416039;28;20053;-66
2023/10/04 10:35:58;;;;;;;1999.90;999.90;;;;;;;18.48;82.27;102581.16;10415728;28;20518;-66
2023/10/04 10:41:00;;;;;;;1999.90;999.90;;;;;;;19.47;76.92;102581.00;10415689;28;20045;-66
2023/10/04 10:46:31;;;;;;;1999.90;999.90;;;;;;;18.17;80.56;102567.13;10415300;28;20060;-66
2023/10/04 10:51:43;;;;;;;1999.90;999.90;;;;;;;19.10;77.72;102555.06;10399326;28;20053;-66
2023/10/04 10:56:46;;;;;;;1999.90;999.90;;;;;;;18.51;79.15;102549.16;10415953;28;20080;-66
2023/10/04 11:01:48;;;;;;;1999.90;999.90;;;;;;;19.78;76.91;102547.88;10415264;28;20045;-66
2023/10/04 11:06:51;;;;;;;1999.90;999.90;;;;;;;20.15;71.83;102540.00;10414596;28;20046;-66
2023/10/04 11:11:54;;;;;;;1999.90;999.90;;;;;;;19.98;76.50;102545.66;10397088;28;20072;-65
2023/10/04 11:16:56;;;;;;;1999.90;999.90;;;;;;;18.99;73.10;102540.78;10415011;28;20057;-63
2023/10/04 11:22:02;;;;;;;1999.90;999.90;;;;;;;18.82;72.55;102541.88;10414890;28;20073;-63
2023/10/04 11:27:09;;;;;;;1999.90;999.90;;;;;;;19.93;70.70;102526.53;10398145;28;20050;-64
2023/10/04 11:32:11;;;;;;;1999.90;999.90;;;;;;;19.92;70.42;102536.31;10414168;28;20049;-63
2023/10/04 11:37:15;;;;;;;1999.90;999.90;;;;;;;19.99;68.23;102526.94;10397643;28;20099;-64
2023/10/04 11:42:21;;;;;;;1999.90;999.90;;;;;;;20.56;68.17;102524.69;10396458;28;20053;-63
2023/10/04 11:47:28;;;;;;;1999.90;999.90;;;;;;;18.51;70.46;102528.78;10414502;28;20060;-65
2023/10/04 11:52:34;;;;;;;1999.90;999.90;;;;;;;19.24;70.42;102516.97;10413752;28;20504;-65
2023/10/04 11:57:39;;;;;;;1999.90;999.90;;;;;;;19.58;70.29;102506.72;10418575;28;20406;-63
2023/10/04 12:02:42;;;;;;;1999.90;999.90;;;;;;;20.06;69.20;102494.63;10421489;28;20112;-63
2023/10/04 12:07:45;;;;;;;1999.90;999.90;;;;;;;19.56;68.00;102481.22;10403803;28;20136;-64
2023/10/04 12:12:47;;;;;;;1999.90;999.90;;;;;;;19.39;69.73;102491.19;10403039;28;20053;-63
2023/10/04 12:17:50;;;;;;;1999.90;999.90;;;;;;;19.12;71.00;102478.81;10420364;28;20405;-63
2023/10/04 12:22:52;;;;;;;1999.90;999.90;;;;;;;19.80;69.93;102474.25;10420037;28;20434;-63
2023/10/04 12:27:55;;;;;;;1999.90;999.90;;;;;;;19.66;69.14;102479.63;10427595;22;20084;-65
2023/10/04 12:32:57;;;;;;;1999.90;999.90;;;;;;;19.09;68.76;102484.34;10419829;28;20069;-65
2023/10/04 12:38:00;;;;;;;1999.90;999.90;;;;;;;18.42;72.13;102489.56;10420742;28;20049;-65
2023/10/04 12:43:02;;;;;;;1999.90;999.90;;;;;;;18.60;72.14;102486.69;10420479;28;20128;-65
2023/10/04 12:48:06;;;;;;;1999.90;999.90;;;;;;;18.62;73.85;102482.97;10420321;28;20054;-65
2023/10/04 12:53:09;;;;;;;1999.90;999.90;;;;;;;18.78;73.16;102484.63;10419695;28;20096;-65
2023/10/04 12:58:13;;;;;;;1999.90;999.90;;;;;;;18.31;73.61;102481.47;10418939;28;20072;-65
2023/10/04 13:03:16;;;;;;;1999.90;999.90;;;;;;;17.92;76.01;102475.91;10418544;28;20513;-65
2023/10/04 13:08:24;;;;;;;1999.90;999.90;;;;;;;17.85;74.92;102485.13;10400782;28;20391;-65
2023/10/04 13:13:28;;;;;;;1999.90;999.90;;;;;;;17.77;74.66;102471.50;10418915;28;20057;-64
2023/10/04 13:18:31;;;;;;;1999.90;999.90;;;;;;;17.59;75.33;102466.41;10401040;28;20045;-65
2023/10/04 13:23:34;;;;;;;1999.90;999.90;;;;;;;17.77;76.30;102460.91;10417720;28;20147;-65
2023/10/04 13:28:37;;;;;;;1999.90;999.90;;;;;;;18.06;77.50;102459.16;10400158;28;20049;-65
2023/10/04 13:33:39;;;;;;;1999.90;999.90;;;;;;;17.77;75.85;102461.78;10417442;28;20053;-65
2023/10/04 13:38:41;;;;;;;1999.90;999.90;;;;;;;17.45;76.78;102456.66;10417787;28;20056;-64
2023/10/04 13:43:45;;;;;;;1999.90;999.90;;;;;;;17.60;77.26;102454.88;10417677;28;20045;-65
2023/10/04 13:48:49;;;;;;;1999.90;999.90;;;;;;;17.55;78.89;102448.13;10417996;28;20049;-65
2023/10/04 13:53:51;;;;;;;1999.90;999.90;;;;;;;17.67;77.46;102450.06;10399960;28;20045;-65
2023/10/04 15:51:57;;;;;;;1999.90;999.90;;;;;;;16.73;82.19;102397.38;10661433;27;20472;-74
2023/10/04 15:57:00;;;;;;;1999.90;999.90;;;;;;;16.84;81.43;102387.03;10661526;27;20043;-76
2023/10/04 16:02:02;;;;;;;1999.90;999.90;;;;;;;16.80;82.26;102387.28;10660216;27;20069;-73
2023/10/04 16:07:04;;;;;;;1999.90;999.90;;;;;;;16.45;83.53;102376.97;10661370;27;20043;-73
2023/10/04 16:12:07;;;;;;;1999.90;999.90;;;;;;;16.19;85.69;102381.06;10659160;27;20410;-73
2023/10/04 16:17:09;;;;;;;1999.90;999.90;;;;;;;16.02;85.98;102366.16;10659535;27;20050;-73
2023/10/04 16:22:12;;;;;;;1999.90;999.90;;;;;;;16.15;85.63;102377.75;10659470;27;20047;-73
2023/10/04 16:27:14;;;;;;;1999.90;999.90;;;;;;;16.15;87.35;102377.75;10659229;27;20058;-73
2023/10/04 16:32:16;;;;;;;1999.90;999.90;;;;;;;15.91;91.00;102377.34;10659548;27;20402;-73
2023/10/04 16:37:22;;;;;;;1999.90;999.90;;;;;;;16.03;89.87;102373.16;10658764;27;20043;-73
2023/10/04 16:42:24;;;;;;;1999.90;999.90;;;;;;;15.93;88.77;102372.81;10659073;27;20481;-73
2023/10/04 16:47:27;;;;;;;1999.90;999.90;;;;;;;15.92;89.59;102376.38;10645643;27;20047;-73
2023/10/04 16:52:29;;;;;;;1999.90;999.90;;;;;;;15.73;88.75;102387.91;10675231;27;20047;-73
2023/10/04 16:57:31;;;;;;;1999.90;999.90;;;;;;;15.31;91.80;102381.34;10672254;27;20070;-72
2023/10/04 17:02:34;;;;;;;1999.90;999.90;;;;;;;15.17;98.09;102391.78;10671548;27;20047;-72
2023/10/04 17:07:37;;;;;;;1999.90;999.90;;;;;;;15.15;100.00;102393.66;10654126;27;20051;-72
2023/10/04 17:12:39;;;;;;;1999.90;999.90;;;;;;;14.94;100.00;102393.78;10672980;27;20046;-72
2023/10/04 17:17:43;;;;;;;1999.90;999.90;;;;;;;14.92;100.00;102389.53;10670869;27;20074;-72
2023/10/04 17:22:46;;;;;;;1999.90;999.90;;;;;;;14.58;100.00;102407.00;10671281;27;20051;-73
2023/10/04 17:27:49;;;;;;;1999.90;999.90;;;;;;;14.74;100.00;102404.47;10671154;27;20146;-73
2023/10/04 17:32:51;;;;;;;1999.90;999.90;;;;;;;14.84;100.00;102406.59;10670229;27;20406;-73
2023/10/04 17:37:54;;;;;;;1999.90;999.90;;;;;;;14.70;99.27;102402.94;10670080;27;20486;-72
2023/10/04 17:42:57;;;;;;;1999.90;999.90;;;;;;;14.82;99.10;102404.94;10670680;27;20129;-72
2023/10/04 17:47:59;;;;;;;1999.90;999.90;;;;;;;14.53;100.00;102415.13;10670144;27;20046;-72
2023/10/04 17:53:02;;;;;;;1999.90;999.90;;;;;;;14.21;100.00;102428.03;10671435;27;20058;-71
2023/10/04 17:58:05;;;;;;;1999.90;999.90;;;;;;;13.91;100.00;102423.25;10671074;27;20077;-72
2023/10/04 18:03:08;;;;;;;1999.90;999.90;;;;;;;13.41;100.00;102439.50;10669236;27;20407;-71
2023/10/04 18:08:12;;;;;;;1999.90;999.90;;;;;;;13.16;100.00;102445.81;10670705;27;20047;-71
2023/10/04 18:13:14;;;;;;;1999.90;999.90;;;;;;;13.04;100.00;102442.81;10669280;27;20081;-71
2023/10/04 18:18:17;;;;;;;1999.90;999.90;;;;;;;12.83;100.00;102443.66;10668373;27;20483;-71
2023/10/04 18:23:22;;;;;;;1999.90;999.90;;;;;;;12.75;100.00;102434.38;10651709;27;20051;-71
2023/10/04 18:28:25;;;;;;;1999.90;999.90;;;;;;;12.69;100.00;102424.09;10669894;27;20047;-72
2023/10/04 18:33:29;;;;;;;1999.90;999.90;;;;;;;12.35;100.00;102442.03;10669608;27;20043;-71
2023/10/04 18:38:32;;;;;;;1999.90;999.90;;;;;;;12.41;100.00;102435.72;10668230;27;20050;-72
2023/10/04 18:43:34;;;;;;;1999.90;999.90;;;;;;;12.20;100.00;102432.13;10669215;27;20218;-71
2023/10/04 18:48:37;;;;;;;1999.90;999.90;;;;;;;12.31;100.00;102424.69;10668659;27;20203;-71
2023/10/04 18:53:41;;;;;;;1999.90;999.90;;;;;;;12.20;100.00;102432.13;10668866;27;20118;-71
2023/10/04 18:58:43;;;;;;;1999.90;999.90;;;;;;;12.13;100.00;102420.16;10667362;27;20125;-71
2023/10/04 19:03:45;;;;;;;1999.90;999.90;;;;;;;12.15;100.00;102419.16;10666627;27;20491;-71
2023/10/04 19:08:48;;;;;;;1999.90;999.90;;;;;;;12.16;100.00;102418.25;10666553;27;20046;-71
2023/10/04 19:13:50;;;;;;;1999.90;999.90;;;;;;;12.13;100.00;102417.53;10667898;27;20043;-71
2023/10/04 19:18:54;;;;;;;1999.90;999.90;;;;;;;11.97;100.00;102414.59;10667947;27;20075;-72
2023/10/04 19:23:56;;;;;;;1999.90;999.90;;;;;;;11.99;100.00;102413.66;10667980;27;20129;-71
2023/10/04 19:28:59;;;;;;;1999.90;999.90;;;;;;;11.93;100.00;102413.88;10667762;27;20049;-71
2023/10/04 19:34:02;;;;;;;1999.90;999.90;;;;;;;12.14;100.00;102412.22;10667723;27;20074;-72
2023/10/04 19:39:07;;;;;;;1999.90;999.90;;;;;;;12.23;100.00;102395.25;10667508;27;20065;-72
2023/10/04 19:44:10;;;;;;;1999.90;999.90;;;;;;;12.20;100.00;102387.50;10668075;27;20103;-72
2023/10/04 19:49:13;;;;;;;1999.90;999.90;;;;;;;12.00;100.00;102404.88;10665854;27;20053;-71
2023/10/04 19:54:15;;;;;;;1999.90;999.90;;;;;;;12.18;100.00;102392.78;10665477;27;20457;-71
2023/10/04 19:59:18;;;;;;;1999.90;999.90;;;;;;;12.19;100.00;102388.41;10666466;27;20125;-72
2023/10/04 20:04:22;;;;;;;1999.90;999.90;;;;;;;12.13;100.00;102388.66;10648020;27;20481;-71
2023/10/04 20:09:26;;;;;;;1999.90;999.90;;;;;;;12.14;100.00;102385.97;10665799;27;20050;-71
2023/10/04 20:14:30;;;;;;;1999.90;999.90;;;;;;;12.22;100.00;102370.78;10666880;27;20049;-71
2023/10/04 20:19:33;;;;;;;1999.90;999.90;;;;;;;12.34;100.00;102381.69;10664862;27;20505;-72
2023/10/04 20:24:36;;;;;;;1999.90;999.90;;;;;;;12.33;100.00;102372.13;10668593;27;20054;-72
2023/10/04 20:29:42;;;;;;;1999.90;999.90;;;;;;;12.88;100.00;102350.59;10673528;27;20042;-72
2023/10/04 20:34:44;;;;;;;1999.90;999.90;;;;;;;12.95;100.00;102358.16;10674543;27;20070;-72
2023/10/04 20:39:46;;;;;;;1999.90;999.90;;;;;;;12.75;100.00;102342.38;10673484;27;20141;-72
2023/10/04 20:44:49;;;;;;;1999.90;999.90;;;;;;;12.48;100.00;102329.47;10673447;27;20054;-71
2023/10/04 20:49:51;;;;;;;1999.90;999.90;;;;;;;12.48;100.00;102332.09;10671887;27;20410;-71
2023/10/04 20:54:55;;;;;;;1999.90;999.90;;;;;;;12.66;100.00;102333.13;10671788;27;20211;-72
2023/10/04 20:59:57;;;;;;;1999.90;999.90;;;;;;;12.67;100.00;102329.56;10672216;27;20047;-71
2023/10/04 21:05:00;;;;;;;1999.90;999.90;;;;;;;13.01;100.00;102341.25;10673280;27;20043;-72
2023/10/04 21:10:02;;;;;;;1999.90;999.90;;;;;;;13.16;100.00;102329.22;10671262;27;20047;-72
2023/10/04 21:15:11;;;;;;;1999.90;999.90;;;;;;;13.29;100.00;102332.19;10673037;27;20043;-72
2023/10/04 21:20:17;;;;;;;1999.90;999.90;;;;;;;13.50;100.00;102323.34;10670916;27;20129;-71
2023/10/04 21:25:22;;;;;;;1999.90;999.90;;;;;;;13.70;100.00;102306.66;10672090;27;20050;-72
2023/10/04 21:30:38;;;;;;;1999.90;999.90;;;;;;;13.71;100.00;102310.13;10672362;27;20050;-71
2023/10/04 21:35:40;;;;;;;1999.90;999.90;;;;;;;13.89;100.00;102298.72;10670835;27;20057;-72
2023/10/04 21:40:44;;;;;;;1999.90;999.90;;;;;;;13.89;100.00;102297.88;10671821;27;20126;-71
2023/10/04 21:45:50;;;;;;;1999.90;999.90;;;;;;;13.86;100.00;102298.88;10671654;27;20100;-70
2023/10/04 21:50:53;;;;;;;1999.90;999.90;;;;;;;13.80;100.00;102295.69;10670804;27;20054;-71
2023/10/04 21:55:55;;;;;;;1999.90;999.90;;;;;;;13.82;100.00;102278.91;10671266;27;20043;-71
2023/10/04 22:00:58;;;;;;;1999.90;999.90;;;;;;;13.91;100.00;102267.06;10651844;27;20050;-72
2023/10/04 22:06:01;;;;;;;1999.90;999.90;;;;;;;13.91;100.00;102264.44;10652502;27;20047;-71
2023/10/04 22:11:05;;;;;;;1999.90;999.90;;;;;;;13.91;100.00;102261.81;10669452;27;20096;-71
2023/10/04 22:16:08;;;;;;;1999.90;999.90;;;;;;;13.89;100.00;102272.41;10670401;27;20046;-71
2023/10/04 22:21:11;;;;;;;1999.90;999.90;;;;;;;13.86;100.00;102256.75;10668945;27;20077;-71
2023/10/04 22:26:13;;;;;;;1999.90;999.90;;;;;;;13.81;100.00;102245.59;10668159;27;20050;-71
2023/10/04 22:31:16;;;;;;;1999.90;999.90;;;;;;;13.74;100.00;102241.56;10669720;27;20049;-71
2023/10/04 22:36:19;;;;;;;1999.90;999.90;;;;;;;13.83;100.00;102237.63;10669635;27;20046;-72
2023/10/04 22:41:37;;;;;;;1999.90;999.90;;;;;;;13.76;100.00;102244.97;10668304;27;20045;-71
2023/10/04 22:46:40;;;;;;;1999.90;999.90;;;;;;;13.77;100.00;102223.00;10650372;27;20142;-72
2023/10/04 22:51:42;;;;;;;1999.90;999.90;;;;;;;13.80;100.00;102224.59;10668177;27;20051;-71
2023/10/04 22:56:45;;;;;;;1999.90;999.90;;;;;;;13.80;100.00;102219.34;10666982;27;20071;-71
2023/10/04 23:01:48;;;;;;;1999.90;999.90;;;;;;;13.73;100.00;102211.75;10667348;27;20049;-71
2023/10/04 23:06:51;;;;;;;1999.90;999.90;;;;;;;13.54;100.00;102222.28;10668534;27;20066;-72
2023/10/04 23:11:54;;;;;;;1999.90;999.90;;;;;;;13.62;100.00;102202.69;10668383;27;20046;-71
2023/10/04 23:16:57;;;;;;;1999.90;999.90;;;;;;;13.62;100.00;102198.25;10666979;27;20064;-71
2023/10/04 23:22:09;;;;;;;1999.90;999.90;;;;;;;13.57;100.00;102201.09;10666781;27;20057;-72
2023/10/04 23:27:13;;;;;;;;;;;;;;;13.64;100.00;102185.03;10666750;27;20505;-71
2023/10/04 23:32:15;;;;;;;1999.90;999.90;;;;;;;13.55;100.00;102181.06;10665956;27;19919;-72
2023/10/04 23:37:22;;;;;;;1999.90;999.90;;;;;;;13.77;100.00;102182.63;10666561;27;20047;-71
2023/10/04 23:42:25;;;;;;;1999.90;999.90;;;;;;;13.56;100.00;102194.13;10667521;27;20039;-71
2023/10/04 23:47:27;;;;;;;1999.90;999.90;;;;;;;13.52;100.00;102189.94;10666545;27;20085;-72